Ruby_indah — 9VND — position and weather

sailwx.info

Track history (hours):
 
Tides and Currents Weather Stations Pressure Air Temp Water Temp Dewpoint Dewpoint Depression Visibility Wind Speed Wind Dir Waves Ship Positions

Ruby_indah

Last reported at 2014-Aug-01 04:31 UTC. Time now 2014-Aug-01 12:01 UTC.
Position N 54°06' W 130°34'.

Length 229 m; draft 7.3 m.

Type: Cargo ship. MMSI: 564748000.

Date/timePositionNaut miles runAvg speedWind from/ knotsBaromVisibWave heightAir tempDewpointWater temp
2014-Aug-01 04:31N 54°06' W 130°34'0 0.0
2014-Aug-01 01:31N 54°06' W 130°35'0 0.0
2014-Aug-01 00:31N 54°06' W 130°35'0 0.0
2014-Jul-31 23:04N 54°06' W 130°34'0 0.1
2014-Jul-31 22:22N 54°06' W 130°35'0 0.0
2014-Jul-31 21:31N 54°06' W 130°35'0 0.0
2014-Jul-31 20:10N 54°06' W 130°34'0 0.0
2014-Jul-31 19:25N 54°06' W 130°35'0 0.0
2014-Jul-31 18:31N 54°06' W 130°35'0 0.0
2014-Jul-31 17:10N 54°06' W 130°35'0 0.0
2014-Jul-31 13:10N 54°06' W 130°34'0 0.0
2014-Jul-31 12:16N 54°06' W 130°35'0 0.0
2014-Jul-31 09:12N 54°06' W 130°34'0 0.0
2014-Jul-31 08:12N 54°06' W 130°34'0 0.1
2014-Jul-31 07:33N 54°06' W 130°35'0 0.0
2014-Jul-31 06:12N 54°06' W 130°35'0 0.0
2014-Jul-31 04:30N 54°06' W 130°35'0 0.0
2014-Jul-31 03:09N 54°06' W 130°35'0 0.0
2014-Jul-31 02:30N 54°06' W 130°35'0 0.0
2014-Jul-31 01:33N 54°06' W 130°35'0 0.0
2014-Jul-30 23:30N 54°06' W 130°35'0 0.0
2014-Jul-30 22:30N 54°06' W 130°35'0 0.0
2014-Jul-30 21:33N 54°06' W 130°35'0 0.0
2014-Jul-30 20:33N 54°06' W 130°35'0 0.0
2014-Jul-30 19:06N 54°06' W 130°35'0 0.1
2014-Jul-30 18:30N 54°06' W 130°35'0 0.0
2014-Jul-28 18:20N 54°06' W 130°34'0 0.0
2014-Jul-27 16:16N 54°06' W 130°34'0 0.0
2014-Jul-25 16:29N 54°06' W 130°35'0 0.0
2014-Jul-25 12:29N 54°07' W 130°35'0 0.0
2014-Jul-25 05:29N 54°06' W 130°34'0 0.0
2014-Jul-24 19:17N 54°06' W 130°34'0 0.2
2014-Jul-24 18:11N 54°06' W 130°34'0 0.0
2014-Jul-24 10:08N 54°06' W 130°34'0 0.1
2014-Jul-24 08:14N 54°06' W 130°34'0 0.0
2014-Jul-24 05:13N 54°06' W 130°34'0 0.0
2014-Jul-24 02:28N 54°06' W 130°34'0 0.0
2014-Jul-24 00:22N 54°06' W 130°34'0 0.0
2014-Jul-23 23:10N 54°06' W 130°35'0 0.0
2014-Jul-23 22:31N 54°06' W 130°35'0 0.1
2014-Jul-23 21:16N 54°06' W 130°34'0 0.0
2014-Jul-23 18:31N 54°06' W 130°34'0 0.0
2014-Jul-23 13:22N 54°06' W 130°35'0 0.0
2014-Jul-23 08:30N 54°06' W 130°34'7 7.6
2014-Jul-23 07:33N 54°11' W 130°26'8 0.7
2014-Jul-22 20:33N 54°19' W 130°21'0 0.5
2014-Jul-22 19:34N 54°19' W 130°20'0 0.0
2014-Jul-22 18:32N 54°19' W 130°20'0 0.0
2014-Jul-22 17:32N 54°19' W 130°21'0 0.2
2014-Jul-22 16:32N 54°19' W 130°21'0 0.1
2014-Jul-22 15:32N 54°19' W 130°21'0 0.0
2014-Jul-22 14:32N 54°19' W 130°21'0 0.0
2014-Jul-22 13:32N 54°19' W 130°21'0 0.0
2014-Jul-22 12:32N 54°19' W 130°21'0 0.0
2014-Jul-22 11:32N 54°19' W 130°21'0 0.0
2014-Jul-22 10:32N 54°19' W 130°21'0 0.1
2014-Jul-22 09:32N 54°19' W 130°21'0 0.0
2014-Jul-22 08:32N 54°19' W 130°21'0 0.1
2014-Jul-22 07:32N 54°19' W 130°20'0 0.0
2014-Jul-22 06:32N 54°19' W 130°20'0 0.1
2014-Jul-22 05:32N 54°19' W 130°20'0 0.0
2014-Jul-22 04:32N 54°19' W 130°20'  
Track history (hours):
 
Tides and Currents Weather Stations Pressure Air Temp Water Temp Dewpoint Dewpoint Depression Visibility Wind Speed Wind Dir Waves Ship Positions

Ruby_indah

Last reported at 2014-Aug-01 04:31 UTC. Time now 2014-Aug-01 12:01 UTC.
Position N 54°06' W 130°34'.

Length 229 m; draft 7.3 m.

Type: Cargo ship. MMSI: 564748000.

Date/timePositionNaut miles runAvg speedWind from/ knotsBaromVisibWave heightAir tempDewpointWater temp
2014-Aug-01 04:31N 54°06' W 130°34'0 0.0
2014-Aug-01 01:31N 54°06' W 130°35'0 0.0
2014-Aug-01 00:31N 54°06' W 130°35'0 0.0
2014-Jul-31 23:04N 54°06' W 130°34'0 0.1
2014-Jul-31 22:22N 54°06' W 130°35'0 0.0
2014-Jul-31 21:31N 54°06' W 130°35'0 0.0
2014-Jul-31 20:10N 54°06' W 130°34'0 0.0
2014-Jul-31 19:25N 54°06' W 130°35'0 0.0
2014-Jul-31 18:31N 54°06' W 130°35'0 0.0
2014-Jul-31 17:10N 54°06' W 130°35'0 0.0
2014-Jul-31 13:10N 54°06' W 130°34'0 0.0
2014-Jul-31 12:16N 54°06' W 130°35'0 0.0
2014-Jul-31 09:12N 54°06' W 130°34'0 0.0
2014-Jul-31 08:12N 54°06' W 130°34'0 0.1
2014-Jul-31 07:33N 54°06' W 130°35'0 0.0
2014-Jul-31 06:12N 54°06' W 130°35'0 0.0
2014-Jul-31 04:30N 54°06' W 130°35'0 0.0
2014-Jul-31 03:09N 54°06' W 130°35'0 0.0
2014-Jul-31 02:30N 54°06' W 130°35'0 0.0
2014-Jul-31 01:33N 54°06' W 130°35'0 0.0
2014-Jul-30 23:30N 54°06' W 130°35'0 0.0
2014-Jul-30 22:30N 54°06' W 130°35'0 0.0
2014-Jul-30 21:33N 54°06' W 130°35'0 0.0
2014-Jul-30 20:33N 54°06' W 130°35'0 0.0
2014-Jul-30 19:06N 54°06' W 130°35'0 0.1
2014-Jul-30 18:30N 54°06' W 130°35'0 0.0
2014-Jul-28 18:20N 54°06' W 130°34'0 0.0
2014-Jul-27 16:16N 54°06' W 130°34'0 0.0
2014-Jul-25 16:29N 54°06' W 130°35'0 0.0
2014-Jul-25 12:29N 54°07' W 130°35'0 0.0
2014-Jul-25 05:29N 54°06' W 130°34'0 0.0
2014-Jul-24 19:17N 54°06' W 130°34'0 0.2
2014-Jul-24 18:11N 54°06' W 130°34'0 0.0
2014-Jul-24 10:08N 54°06' W 130°34'0 0.1
2014-Jul-24 08:14N 54°06' W 130°34'0 0.0
2014-Jul-24 05:13N 54°06' W 130°34'0 0.0
2014-Jul-24 02:28N 54°06' W 130°34'0 0.0
2014-Jul-24 00:22N 54°06' W 130°34'0 0.0
2014-Jul-23 23:10N 54°06' W 130°35'0 0.0
2014-Jul-23 22:31N 54°06' W 130°35'0 0.1
2014-Jul-23 21:16N 54°06' W 130°34'0 0.0
2014-Jul-23 18:31N 54°06' W 130°34'0 0.0
2014-Jul-23 13:22N 54°06' W 130°35'0 0.0
2014-Jul-23 08:30N 54°06' W 130°34'7 7.6
2014-Jul-23 07:33N 54°11' W 130°26'8 0.7
2014-Jul-22 20:33N 54°19' W 130°21'0 0.5
2014-Jul-22 19:34N 54°19' W 130°20'0 0.0
2014-Jul-22 18:32N 54°19' W 130°20'0 0.0
2014-Jul-22 17:32N 54°19' W 130°21'0 0.2
2014-Jul-22 16:32N 54°19' W 130°21'0 0.1
2014-Jul-22 15:32N 54°19' W 130°21'0 0.0
2014-Jul-22 14:32N 54°19' W 130°21'0 0.0
2014-Jul-22 13:32N 54°19' W 130°21'0 0.0
2014-Jul-22 12:32N 54°19' W 130°21'0 0.0
2014-Jul-22 11:32N 54°19' W 130°21'0 0.0
2014-Jul-22 10:32N 54°19' W 130°21'0 0.1
2014-Jul-22 09:32N 54°19' W 130°21'0 0.0
2014-Jul-22 08:32N 54°19' W 130°21'0 0.1
2014-Jul-22 07:32N 54°19' W 130°20'0 0.0
2014-Jul-22 06:32N 54°19' W 130°20'0 0.1
2014-Jul-22 05:32N 54°19' W 130°20'0 0.0
2014-Jul-22 04:32N 54°19' W 130°20'  

Dump ship's entire track history